Aviation Digital Data Service (ADDS)

Output produced by METARs form (1506 UTC 27 August 2016)
found at http://aviationweather.gov/adds/metars/
 
KFAY 271120Z 2712/2812 VRB05KT P6SM SKC 
     FM271900 16004KT P6SM VCTS SCT040CB SCT080 
     FM280100 06003KT P6SM SCT250 
     FM281000 03005KT 4SM BR BKN007